sensor_id;sensor_type;location;lat;lon;timestamp;P1;durP1;ratioP1;P2;durP2;ratioP2
65358;SDS011;52491;45.900;6.346;2024-03-22T00:01:10;3.00;;;1.80;;
65358;SDS011;52491;45.900;6.346;2024-03-22T00:03:36;2.33;;;1.88;;
65358;SDS011;52491;45.900;6.346;2024-03-22T00:06:02;3.33;;;1.60;;
65358;SDS011;52491;45.900;6.346;2024-03-22T00:08:28;7.30;;;2.50;;
65358;SDS011;52491;45.900;6.346;2024-03-22T00:10:53;3.40;;;1.55;;
65358;SDS011;52491;45.900;6.346;2024-03-22T00:13:19;2.75;;;1.95;;
65358;SDS011;52491;45.900;6.346;2024-03-22T00:15:44;2.30;;;1.63;;
65358;SDS011;52491;45.900;6.346;2024-03-22T00:18:10;3.92;;;1.95;;
65358;SDS011;52491;45.900;6.346;2024-03-22T00:20:36;2.83;;;1.60;;
65358;SDS011;52491;45.900;6.346;2024-03-22T00:23:02;3.20;;;1.63;;
65358;SDS011;52491;45.900;6.346;2024-03-22T00:25:28;1.98;;;1.58;;
65358;SDS011;52491;45.900;6.346;2024-03-22T00:27:54;2.10;;;1.60;;
65358;SDS011;52491;45.900;6.346;2024-03-22T00:30:20;2.75;;;1.95;;
65358;SDS011;52491;45.900;6.346;2024-03-22T00:32:46;2.33;;;2.03;;
65358;SDS011;52491;45.900;6.346;2024-03-22T00:35:12;1.83;;;1.50;;
65358;SDS011;52491;45.900;6.346;2024-03-22T00:37:38;1.92;;;1.70;;
65358;SDS011;52491;45.900;6.346;2024-03-22T00:40:04;3.67;;;1.65;;
65358;SDS011;52491;45.900;6.346;2024-03-22T00:42:31;4.88;;;1.88;;
65358;SDS011;52491;45.900;6.346;2024-03-22T00:44:56;1.33;;;1.20;;
65358;SDS011;52491;45.900;6.346;2024-03-22T00:47:23;3.25;;;1.92;;
65358;SDS011;52491;45.900;6.346;2024-03-22T00:49:48;2.05;;;1.52;;
65358;SDS011;52491;45.900;6.346;2024-03-22T00:52:14;2.58;;;1.60;;
65358;SDS011;52491;45.900;6.346;2024-03-22T00:54:40;3.67;;;1.50;;
65358;SDS011;52491;45.900;6.346;2024-03-22T00:57:06;1.83;;;1.58;;
65358;SDS011;52491;45.900;6.346;2024-03-22T00:59:32;1.77;;;1.20;;
65358;SDS011;52491;45.900;6.346;2024-03-22T01:01:58;2.38;;;1.38;;
65358;SDS011;52491;45.900;6.346;2024-03-22T01:04:23;2.20;;;1.55;;
65358;SDS011;52491;45.900;6.346;2024-03-22T01:06:49;2.45;;;1.45;;
65358;SDS011;52491;45.900;6.346;2024-03-22T01:09:15;2.55;;;1.60;;
65358;SDS011;52491;45.900;6.346;2024-03-22T01:11:40;2.50;;;1.40;;
65358;SDS011;52491;45.900;6.346;2024-03-22T01:14:06;3.05;;;1.30;;
65358;SDS011;52491;45.900;6.346;2024-03-22T01:16:32;1.73;;;1.40;;
65358;SDS011;52491;45.900;6.346;2024-03-22T01:18:58;1.83;;;0.90;;
65358;SDS011;52491;45.900;6.346;2024-03-22T01:21:23;2.03;;;1.27;;
65358;SDS011;52491;45.900;6.346;2024-03-22T01:23:51;2.45;;;1.40;;
65358;SDS011;52491;45.900;6.346;2024-03-22T01:26:17;2.85;;;1.00;;
65358;SDS011;52491;45.900;6.346;2024-03-22T01:28:43;3.20;;;1.48;;
65358;SDS011;52491;45.900;6.346;2024-03-22T01:31:09;3.05;;;1.10;;
65358;SDS011;52491;45.900;6.346;2024-03-22T01:33:34;3.13;;;1.50;;
65358;SDS011;52491;45.900;6.346;2024-03-22T01:36:00;3.58;;;1.30;;
65358;SDS011;52491;45.900;6.346;2024-03-22T01:38:26;1.20;;;1.08;;
65358;SDS011;52491;45.900;6.346;2024-03-22T01:40:51;4.32;;;1.42;;
65358;SDS011;52491;45.900;6.346;2024-03-22T01:43:17;1.75;;;1.00;;
65358;SDS011;52491;45.900;6.346;2024-03-22T01:45:43;1.42;;;1.10;;
65358;SDS011;52491;45.900;6.346;2024-03-22T01:48:09;1.20;;;0.80;;
65358;SDS011;52491;45.900;6.346;2024-03-22T01:50:34;1.48;;;0.88;;
65358;SDS011;52491;45.900;6.346;2024-03-22T01:53:00;2.17;;;1.35;;
65358;SDS011;52491;45.900;6.346;2024-03-22T01:55:27;1.98;;;1.05;;
65358;SDS011;52491;45.900;6.346;2024-03-22T01:57:54;1.30;;;1.20;;
65358;SDS011;52491;45.900;6.346;2024-03-22T02:00:20;2.78;;;1.17;;
65358;SDS011;52491;45.900;6.346;2024-03-22T02:02:46;1.13;;;1.00;;
65358;SDS011;52491;45.900;6.346;2024-03-22T02:05:13;1.48;;;0.95;;
65358;SDS011;52491;45.900;6.346;2024-03-22T02:07:41;2.67;;;1.13;;
65358;SDS011;52491;45.900;6.346;2024-03-22T02:10:07;1.65;;;0.90;;
65358;SDS011;52491;45.900;6.346;2024-03-22T02:12:36;1.63;;;1.40;;
65358;SDS011;52491;45.900;6.346;2024-03-22T02:15:03;1.73;;;1.05;;
65358;SDS011;52491;45.900;6.346;2024-03-22T02:17:29;4.05;;;1.88;;
65358;SDS011;52491;45.900;6.346;2024-03-22T02:19:54;2.05;;;1.13;;
65358;SDS011;52491;45.900;6.346;2024-03-22T02:22:20;2.25;;;1.13;;
65358;SDS011;52491;45.900;6.346;2024-03-22T02:24:46;2.10;;;1.08;;
65358;SDS011;52491;45.900;6.346;2024-03-22T02:27:11;1.33;;;1.10;;
65358;SDS011;52491;45.900;6.346;2024-03-22T02:29:37;0.95;;;0.85;;
65358;SDS011;52491;45.900;6.346;2024-03-22T02:32:03;1.17;;;1.08;;
65358;SDS011;52491;45.900;6.346;2024-03-22T02:34:29;1.20;;;1.10;;
65358;SDS011;52491;45.900;6.346;2024-03-22T02:36:54;2.35;;;0.93;;
65358;SDS011;52491;45.900;6.346;2024-03-22T02:39:20;2.08;;;1.00;;
65358;SDS011;52491;45.900;6.346;2024-03-22T02:41:46;1.35;;;1.10;;
65358;SDS011;52491;45.900;6.346;2024-03-22T02:44:11;1.30;;;0.80;;
65358;SDS011;52491;45.900;6.346;2024-03-22T02:46:37;0.70;;;0.70;;
65358;SDS011;52491;45.900;6.346;2024-03-22T02:49:03;1.95;;;1.00;;
65358;SDS011;52491;45.900;6.346;2024-03-22T02:51:28;0.85;;;0.75;;
65358;SDS011;52491;45.900;6.346;2024-03-22T02:53:54;0.82;;;0.80;;
65358;SDS011;52491;45.900;6.346;2024-03-22T02:56:19;1.00;;;0.90;;
65358;SDS011;52491;45.900;6.346;2024-03-22T02:58:45;4.00;;;1.10;;
65358;SDS011;52491;45.900;6.346;2024-03-22T03:01:11;1.00;;;0.63;;
65358;SDS011;52491;45.900;6.346;2024-03-22T03:03:37;1.40;;;0.95;;
65358;SDS011;52491;45.900;6.346;2024-03-22T03:06:02;1.80;;;0.77;;
65358;SDS011;52491;45.900;6.346;2024-03-22T03:08:28;1.30;;;1.20;;
65358;SDS011;52491;45.900;6.346;2024-03-22T03:10:54;2.65;;;1.20;;
65358;SDS011;52491;45.900;6.346;2024-03-22T03:13:19;1.27;;;0.82;;
65358;SDS011;52491;45.900;6.346;2024-03-22T03:15:45;1.27;;;0.80;;
65358;SDS011;52491;45.900;6.346;2024-03-22T03:18:11;1.10;;;0.95;;
65358;SDS011;52491;45.900;6.346;2024-03-22T03:20:36;2.15;;;0.98;;
65358;SDS011;52491;45.900;6.346;2024-03-22T03:23:02;1.90;;;0.95;;
65358;SDS011;52491;45.900;6.346;2024-03-22T03:25:29;1.50;;;0.95;;
65358;SDS011;52491;45.900;6.346;2024-03-22T03:27:54;0.85;;;0.82;;
65358;SDS011;52491;45.900;6.346;2024-03-22T03:30:20;1.00;;;0.82;;
65358;SDS011;52491;45.900;6.346;2024-03-22T03:32:46;1.02;;;0.90;;
65358;SDS011;52491;45.900;6.346;2024-03-22T03:35:11;1.55;;;0.82;;
65358;SDS011;52491;45.900;6.346;2024-03-22T03:37:37;0.93;;;0.82;;
65358;SDS011;52491;45.900;6.346;2024-03-22T03:40:03;1.33;;;0.93;;
65358;SDS011;52491;45.900;6.346;2024-03-22T03:42:29;1.40;;;1.00;;
65358;SDS011;52491;45.900;6.346;2024-03-22T03:44:55;0.80;;;0.80;;
65358;SDS011;52491;45.900;6.346;2024-03-22T03:47:22;2.03;;;0.90;;
65358;SDS011;52491;45.900;6.346;2024-03-22T03:49:48;1.17;;;1.05;;
65358;SDS011;52491;45.900;6.346;2024-03-22T03:52:14;0.70;;;0.70;;
65358;SDS011;52491;45.900;6.346;2024-03-22T03:54:39;1.52;;;0.80;;
65358;SDS011;52491;45.900;6.346;2024-03-22T03:57:05;4.53;;;1.02;;
65358;SDS011;52491;45.900;6.346;2024-03-22T03:59:31;1.08;;;0.77;;
65358;SDS011;52491;45.900;6.346;2024-03-22T04:01:56;1.33;;;1.00;;
65358;SDS011;52491;45.900;6.346;2024-03-22T04:04:22;1.52;;;0.90;;
65358;SDS011;52491;45.900;6.346;2024-03-22T04:06:48;1.65;;;1.20;;
65358;SDS011;52491;45.900;6.346;2024-03-22T04:09:13;2.42;;;0.77;;
65358;SDS011;52491;45.900;6.346;2024-03-22T04:11:39;1.17;;;1.05;;
65358;SDS011;52491;45.900;6.346;2024-03-22T04:14:05;2.83;;;1.55;;
65358;SDS011;52491;45.900;6.346;2024-03-22T04:16:31;1.23;;;1.08;;
65358;SDS011;52491;45.900;6.346;2024-03-22T04:18:57;1.02;;;0.90;;
65358;SDS011;52491;45.900;6.346;2024-03-22T04:21:23;1.23;;;0.82;;
65358;SDS011;52491;45.900;6.346;2024-03-22T04:23:48;2.80;;;1.33;;
65358;SDS011;52491;45.900;6.346;2024-03-22T04:26:14;1.20;;;1.10;;
65358;SDS011;52491;45.900;6.346;2024-03-22T04:28:40;2.50;;;1.48;;
65358;SDS011;52491;45.900;6.346;2024-03-22T04:31:07;1.52;;;1.15;;
65358;SDS011;52491;45.900;6.346;2024-03-22T04:33:34;1.92;;;1.42;;
65358;SDS011;52491;45.900;6.346;2024-03-22T04:36:01;2.70;;;1.27;;
65358;SDS011;52491;45.900;6.346;2024-03-22T04:38:27;2.78;;;1.15;;
65358;SDS011;52491;45.900;6.346;2024-03-22T04:40:54;1.80;;;1.50;;
65358;SDS011;52491;45.900;6.346;2024-03-22T04:43:20;5.13;;;1.20;;
65358;SDS011;52491;45.900;6.346;2024-03-22T04:45:46;2.47;;;1.35;;
65358;SDS011;52491;45.900;6.346;2024-03-22T04:48:14;2.30;;;1.17;;
65358;SDS011;52491;45.900;6.346;2024-03-22T04:50:40;1.20;;;1.10;;
65358;SDS011;52491;45.900;6.346;2024-03-22T04:53:06;2.30;;;1.30;;
65358;SDS011;52491;45.900;6.346;2024-03-22T04:55:32;2.63;;;1.13;;
65358;SDS011;52491;45.900;6.346;2024-03-22T04:57:58;4.57;;;1.27;;
65358;SDS011;52491;45.900;6.346;2024-03-22T05:00:24;3.85;;;1.33;;
65358;SDS011;52491;45.900;6.346;2024-03-22T05:02:51;7.35;;;1.30;;
65358;SDS011;52491;45.900;6.346;2024-03-22T05:05:17;2.47;;;1.17;;
65358;SDS011;52491;45.900;6.346;2024-03-22T05:07:44;1.45;;;1.02;;
65358;SDS011;52491;45.900;6.346;2024-03-22T05:10:09;2.72;;;0.80;;
65358;SDS011;52491;45.900;6.346;2024-03-22T05:12:35;1.00;;;0.82;;
65358;SDS011;52491;45.900;6.346;2024-03-22T05:15:02;1.10;;;1.00;;
65358;SDS011;52491;45.900;6.346;2024-03-22T05:17:29;4.05;;;1.10;;
65358;SDS011;52491;45.900;6.346;2024-03-22T05:19:57;0.90;;;0.82;;
65358;SDS011;52491;45.900;6.346;2024-03-22T05:22:23;1.58;;;1.13;;
65358;SDS011;52491;45.900;6.346;2024-03-22T05:24:49;1.58;;;1.05;;
65358;SDS011;52491;45.900;6.346;2024-03-22T05:27:15;3.70;;;1.00;;
65358;SDS011;52491;45.900;6.346;2024-03-22T05:29:41;3.85;;;1.20;;
65358;SDS011;52491;45.900;6.346;2024-03-22T05:32:06;1.63;;;1.40;;
65358;SDS011;52491;45.900;6.346;2024-03-22T05:34:32;2.85;;;1.02;;
65358;SDS011;52491;45.900;6.346;2024-03-22T05:36:58;1.27;;;1.08;;
65358;SDS011;52491;45.900;6.346;2024-03-22T05:39:24;1.65;;;0.93;;
65358;SDS011;52491;45.900;6.346;2024-03-22T05:41:50;3.88;;;1.10;;
65358;SDS011;52491;45.900;6.346;2024-03-22T05:44:15;2.53;;;1.00;;
65358;SDS011;52491;45.900;6.346;2024-03-22T05:46:41;1.20;;;1.00;;
65358;SDS011;52491;45.900;6.346;2024-03-22T05:49:06;1.45;;;1.33;;
65358;SDS011;52491;45.900;6.346;2024-03-22T05:51:33;3.05;;;1.40;;
65358;SDS011;52491;45.900;6.346;2024-03-22T05:53:58;1.60;;;0.90;;
65358;SDS011;52491;45.900;6.346;2024-03-22T05:56:24;4.78;;;1.10;;
65358;SDS011;52491;45.900;6.346;2024-03-22T05:58:50;1.55;;;1.02;;
65358;SDS011;52491;45.900;6.346;2024-03-22T06:01:15;1.00;;;0.90;;
65358;SDS011;52491;45.900;6.346;2024-03-22T06:03:41;6.10;;;1.35;;
65358;SDS011;52491;45.900;6.346;2024-03-22T06:06:07;3.47;;;1.33;;
65358;SDS011;52491;45.900;6.346;2024-03-22T06:08:33;1.35;;;1.10;;
65358;SDS011;52491;45.900;6.346;2024-03-22T06:11:00;5.68;;;1.38;;
65358;SDS011;52491;45.900;6.346;2024-03-22T06:13:26;1.73;;;1.00;;
65358;SDS011;52491;45.900;6.346;2024-03-22T06:15:52;5.25;;;1.15;;
65358;SDS011;52491;45.900;6.346;2024-03-22T06:18:17;3.40;;;1.52;;
65358;SDS011;52491;45.900;6.346;2024-03-22T06:20:43;30.95;;;2.00;;
65358;SDS011;52491;45.900;6.346;2024-03-22T06:23:09;5.90;;;1.30;;
65358;SDS011;52491;45.900;6.346;2024-03-22T06:25:35;7.18;;;1.20;;
65358;SDS011;52491;45.900;6.346;2024-03-22T06:28:01;5.43;;;1.02;;
65358;SDS011;52491;45.900;6.346;2024-03-22T06:30:27;6.40;;;1.75;;
65358;SDS011;52491;45.900;6.346;2024-03-22T06:32:53;10.02;;;1.73;;
65358;SDS011;52491;45.900;6.346;2024-03-22T06:35:20;13.77;;;2.22;;
65358;SDS011;52491;45.900;6.346;2024-03-22T06:37:46;7.88;;;2.17;;
65358;SDS011;52491;45.900;6.346;2024-03-22T06:40:11;12.50;;;2.15;;
65358;SDS011;52491;45.900;6.346;2024-03-22T06:42:37;5.75;;;2.08;;
65358;SDS011;52491;45.900;6.346;2024-03-22T06:45:03;3.45;;;1.67;;
65358;SDS011;52491;45.900;6.346;2024-03-22T06:47:29;5.32;;;1.63;;
65358;SDS011;52491;45.900;6.346;2024-03-22T06:49:54;3.58;;;1.15;;
65358;SDS011;52491;45.900;6.346;2024-03-22T06:52:20;9.43;;;1.48;;
65358;SDS011;52491;45.900;6.346;2024-03-22T06:54:46;3.40;;;1.55;;
65358;SDS011;52491;45.900;6.346;2024-03-22T06:57:13;5.40;;;1.48;;
65358;SDS011;52491;45.900;6.346;2024-03-22T06:59:38;6.68;;;2.15;;
65358;SDS011;52491;45.900;6.346;2024-03-22T07:02:04;3.35;;;1.48;;
65358;SDS011;52491;45.900;6.346;2024-03-22T07:04:30;8.80;;;2.75;;
65358;SDS011;52491;45.900;6.346;2024-03-22T07:06:56;7.55;;;2.17;;
65358;SDS011;52491;45.900;6.346;2024-03-22T07:09:21;6.15;;;1.70;;
65358;SDS011;52491;45.900;6.346;2024-03-22T07:11:47;20.30;;;2.15;;
65358;SDS011;52491;45.900;6.346;2024-03-22T07:14:12;5.95;;;1.95;;
65358;SDS011;52491;45.900;6.346;2024-03-22T07:16:38;3.30;;;1.52;;
65358;SDS011;52491;45.900;6.346;2024-03-22T07:19:04;3.00;;;1.58;;
65358;SDS011;52491;45.900;6.346;2024-03-22T07:21:31;5.50;;;1.40;;
65358;SDS011;52491;45.900;6.346;2024-03-22T07:23:56;9.57;;;2.17;;
65358;SDS011;52491;45.900;6.346;2024-03-22T07:26:22;2.38;;;1.65;;
65358;SDS011;52491;45.900;6.346;2024-03-22T07:28:48;3.55;;;1.60;;
65358;SDS011;52491;45.900;6.346;2024-03-22T07:31:13;2.47;;;1.38;;
65358;SDS011;52491;45.900;6.346;2024-03-22T07:33:39;1.98;;;1.83;;
65358;SDS011;52491;45.900;6.346;2024-03-22T07:36:05;2.05;;;1.25;;
65358;SDS011;52491;45.900;6.346;2024-03-22T07:38:32;4.25;;;1.65;;
65358;SDS011;52491;45.900;6.346;2024-03-22T07:40:58;2.40;;;1.55;;
65358;SDS011;52491;45.900;6.346;2024-03-22T07:43:23;1.95;;;1.20;;
65358;SDS011;52491;45.900;6.346;2024-03-22T07:45:49;3.67;;;1.67;;
65358;SDS011;52491;45.900;6.346;2024-03-22T07:48:15;3.75;;;1.23;;
65358;SDS011;52491;45.900;6.346;2024-03-22T07:50:41;5.22;;;1.38;;
65358;SDS011;52491;45.900;6.346;2024-03-22T07:53:06;2.13;;;1.30;;
65358;SDS011;52491;45.900;6.346;2024-03-22T07:55:33;2.05;;;1.58;;
65358;SDS011;52491;45.900;6.346;2024-03-22T07:57:59;3.88;;;1.55;;
65358;SDS011;52491;45.900;6.346;2024-03-22T08:00:24;3.17;;;1.58;;
65358;SDS011;52491;45.900;6.346;2024-03-22T08:02:51;5.28;;;1.40;;
65358;SDS011;52491;45.900;6.346;2024-03-22T08:05:17;2.85;;;1.73;;
65358;SDS011;52491;45.900;6.346;2024-03-22T08:07:43;1.35;;;1.25;;
65358;SDS011;52491;45.900;6.346;2024-03-22T08:10:09;4.40;;;1.58;;
65358;SDS011;52491;45.900;6.346;2024-03-22T08:12:35;4.30;;;1.30;;
65358;SDS011;52491;45.900;6.346;2024-03-22T08:15:01;1.63;;;1.30;;
65358;SDS011;52491;45.900;6.346;2024-03-22T08:17:27;2.58;;;1.08;;
65358;SDS011;52491;45.900;6.346;2024-03-22T08:19:52;2.30;;;1.23;;
65358;SDS011;52491;45.900;6.346;2024-03-22T08:22:18;4.28;;;1.50;;
65358;SDS011;52491;45.900;6.346;2024-03-22T08:24:43;3.17;;;0.93;;
65358;SDS011;52491;45.900;6.346;2024-03-22T08:27:09;1.98;;;1.60;;
65358;SDS011;52491;45.900;6.346;2024-03-22T08:29:35;3.20;;;1.52;;
65358;SDS011;52491;45.900;6.346;2024-03-22T08:32:01;5.47;;;1.52;;
65358;SDS011;52491;45.900;6.346;2024-03-22T08:34:29;2.08;;;1.15;;
65358;SDS011;52491;45.900;6.346;2024-03-22T08:36:55;2.50;;;1.45;;
65358;SDS011;52491;45.900;6.346;2024-03-22T08:39:21;8.57;;;1.65;;
65358;SDS011;52491;45.900;6.346;2024-03-22T08:41:46;3.80;;;1.10;;
65358;SDS011;52491;45.900;6.346;2024-03-22T08:44:13;1.13;;;0.90;;
65358;SDS011;52491;45.900;6.346;2024-03-22T08:46:38;2.13;;;1.45;;
65358;SDS011;52491;45.900;6.346;2024-03-22T08:49:04;2.72;;;1.73;;
65358;SDS011;52491;45.900;6.346;2024-03-22T08:51:30;2.45;;;1.85;;
65358;SDS011;52491;45.900;6.346;2024-03-22T08:53:55;1.52;;;1.08;;
65358;SDS011;52491;45.900;6.346;2024-03-22T08:56:21;1.75;;;1.13;;
65358;SDS011;52491;45.900;6.346;2024-03-22T08:58:47;4.80;;;1.42;;
65358;SDS011;52491;45.900;6.346;2024-03-22T09:01:12;1.98;;;0.88;;
65358;SDS011;52491;45.900;6.346;2024-03-22T09:03:38;1.25;;;1.02;;
65358;SDS011;52491;45.900;6.346;2024-03-22T09:06:04;1.33;;;1.00;;
65358;SDS011;52491;45.900;6.346;2024-03-22T09:08:30;5.10;;;1.10;;
65358;SDS011;52491;45.900;6.346;2024-03-22T09:10:56;2.03;;;1.20;;
65358;SDS011;52491;45.900;6.346;2024-03-22T09:13:21;1.65;;;0.90;;
65358;SDS011;52491;45.900;6.346;2024-03-22T09:15:47;1.33;;;0.85;;
65358;SDS011;52491;45.900;6.346;2024-03-22T09:18:13;2.20;;;1.20;;
65358;SDS011;52491;45.900;6.346;2024-03-22T09:20:39;1.75;;;1.00;;
65358;SDS011;52491;45.900;6.346;2024-03-22T09:23:04;1.95;;;0.88;;
65358;SDS011;52491;45.900;6.346;2024-03-22T09:25:30;1.08;;;0.85;;
65358;SDS011;52491;45.900;6.346;2024-03-22T09:27:55;2.30;;;0.93;;
65358;SDS011;52491;45.900;6.346;2024-03-22T09:30:21;1.63;;;1.00;;
65358;SDS011;52491;45.900;6.346;2024-03-22T09:32:47;1.00;;;0.90;;
65358;SDS011;52491;45.900;6.346;2024-03-22T09:35:12;1.40;;;1.02;;
65358;SDS011;52491;45.900;6.346;2024-03-22T09:37:40;1.73;;;1.00;;
65358;SDS011;52491;45.900;6.346;2024-03-22T09:40:06;1.80;;;0.95;;
65358;SDS011;52491;45.900;6.346;2024-03-22T09:42:33;1.52;;;1.20;;
65358;SDS011;52491;45.900;6.346;2024-03-22T09:45:00;3.88;;;1.30;;
65358;SDS011;52491;45.900;6.346;2024-03-22T09:47:27;2.22;;;0.95;;
65358;SDS011;52491;45.900;6.346;2024-03-22T09:49:53;1.25;;;0.85;;
65358;SDS011;52491;45.900;6.346;2024-03-22T09:52:21;2.38;;;0.95;;
65358;SDS011;52491;45.900;6.346;2024-03-22T09:54:47;2.53;;;1.38;;
65358;SDS011;52491;45.900;6.346;2024-03-22T09:57:14;1.10;;;0.65;;
65358;SDS011;52491;45.900;6.346;2024-03-22T09:59:41;1.13;;;0.80;;
65358;SDS011;52491;45.900;6.346;2024-03-22T10:02:09;4.22;;;1.30;;
65358;SDS011;52491;45.900;6.346;2024-03-22T10:04:38;1.30;;;1.00;;
65358;SDS011;52491;45.900;6.346;2024-03-22T10:07:06;3.08;;;0.82;;
65358;SDS011;52491;45.900;6.346;2024-03-22T10:09:34;1.33;;;1.00;;
65358;SDS011;52491;45.900;6.346;2024-03-22T10:12:00;1.10;;;1.00;;
65358;SDS011;52491;45.900;6.346;2024-03-22T10:14:26;1.10;;;1.00;;
65358;SDS011;52491;45.900;6.346;2024-03-22T10:16:53;1.80;;;0.98;;
65358;SDS011;52491;45.900;6.346;2024-03-22T10:19:20;2.53;;;0.98;;
65358;SDS011;52491;45.900;6.346;2024-03-22T10:21:46;0.85;;;0.85;;
65358;SDS011;52491;45.900;6.346;2024-03-22T10:24:13;2.80;;;1.15;;
65358;SDS011;52491;45.900;6.346;2024-03-22T10:26:40;0.82;;;0.77;;
65358;SDS011;52491;45.900;6.346;2024-03-22T10:29:06;1.50;;;0.70;;
65358;SDS011;52491;45.900;6.346;2024-03-22T10:31:32;3.42;;;1.20;;
65358;SDS011;52491;45.900;6.346;2024-03-22T10:33:59;0.77;;;0.70;;
65358;SDS011;52491;45.900;6.346;2024-03-22T10:36:29;3.72;;;1.30;;
65358;SDS011;52491;45.900;6.346;2024-03-22T10:38:56;2.22;;;0.98;;
65358;SDS011;52491;45.900;6.346;2024-03-22T10:41:23;2.58;;;0.70;;
65358;SDS011;52491;45.900;6.346;2024-03-22T10:43:50;1.27;;;1.02;;
65358;SDS011;52491;45.900;6.346;2024-03-22T10:46:16;0.93;;;0.88;;
65358;SDS011;52491;45.900;6.346;2024-03-22T10:48:45;0.80;;;0.73;;
65358;SDS011;52491;45.900;6.346;2024-03-22T10:51:11;1.23;;;0.98;;
65358;SDS011;52491;45.900;6.346;2024-03-22T10:53:39;1.33;;;0.93;;
65358;SDS011;52491;45.900;6.346;2024-03-22T10:56:06;0.70;;;0.70;;
65358;SDS011;52491;45.900;6.346;2024-03-22T10:58:34;2.72;;;0.70;;
65358;SDS011;52491;45.900;6.346;2024-03-22T11:01:04;1.13;;;0.70;;
65358;SDS011;52491;45.900;6.346;2024-03-22T11:03:30;1.05;;;0.63;;
65358;SDS011;52491;45.900;6.346;2024-03-22T11:05:58;0.73;;;0.73;;
65358;SDS011;52491;45.900;6.346;2024-03-22T11:08:29;1.02;;;0.80;;
65358;SDS011;52491;45.900;6.346;2024-03-22T11:10:56;1.80;;;0.80;;
65358;SDS011;52491;45.900;6.346;2024-03-22T11:13:22;1.00;;;0.85;;
65358;SDS011;52491;45.900;6.346;2024-03-22T11:15:49;1.65;;;0.82;;
65358;SDS011;52491;45.900;6.346;2024-03-22T11:18:16;1.42;;;0.90;;
65358;SDS011;52491;45.900;6.346;2024-03-22T11:20:42;5.85;;;1.20;;
65358;SDS011;52491;45.900;6.346;2024-03-22T11:23:10;1.25;;;0.50;;
65358;SDS011;52491;45.900;6.346;2024-03-22T11:25:35;4.45;;;1.50;;
65358;SDS011;52491;45.900;6.346;2024-03-22T11:28:01;4.75;;;0.95;;
65358;SDS011;52491;45.900;6.346;2024-03-22T11:30:28;3.53;;;1.00;;
65358;SDS011;52491;45.900;6.346;2024-03-22T11:32:55;5.15;;;1.80;;
65358;SDS011;52491;45.900;6.346;2024-03-22T11:35:21;5.50;;;1.42;;
65358;SDS011;52491;45.900;6.346;2024-03-22T11:37:48;2.13;;;0.90;;
65358;SDS011;52491;45.900;6.346;2024-03-22T11:40:16;6.63;;;0.80;;
65358;SDS011;52491;45.900;6.346;2024-03-22T11:42:43;4.22;;;1.40;;
65358;SDS011;52491;45.900;6.346;2024-03-22T11:45:15;3.28;;;0.82;;
65358;SDS011;52491;45.900;6.346;2024-03-22T11:47:43;2.15;;;0.88;;
65358;SDS011;52491;45.900;6.346;2024-03-22T11:50:11;4.47;;;1.15;;
65358;SDS011;52491;45.900;6.346;2024-03-22T11:52:40;6.97;;;1.10;;
65358;SDS011;52491;45.900;6.346;2024-03-22T11:55:06;3.58;;;0.93;;
65358;SDS011;52491;45.900;6.346;2024-03-22T11:57:32;3.83;;;0.93;;
65358;SDS011;52491;45.900;6.346;2024-03-22T11:59:59;1.80;;;0.90;;
65358;SDS011;52491;45.900;6.346;2024-03-22T12:02:25;2.00;;;0.80;;
65358;SDS011;52491;45.900;6.346;2024-03-22T12:04:51;1.33;;;0.65;;
65358;SDS011;52491;45.900;6.346;2024-03-22T12:07:17;0.82;;;0.65;;
65358;SDS011;52491;45.900;6.346;2024-03-22T12:09:43;2.65;;;1.10;;
65358;SDS011;52491;45.900;6.346;2024-03-22T12:12:11;2.58;;;1.00;;
65358;SDS011;52491;45.900;6.346;2024-03-22T12:14:38;3.55;;;1.00;;
65358;SDS011;52491;45.900;6.346;2024-03-22T12:17:04;3.22;;;1.02;;
65358;SDS011;52491;45.900;6.346;2024-03-22T12:19:30;3.35;;;1.05;;
65358;SDS011;52491;45.900;6.346;2024-03-22T12:21:56;4.50;;;0.85;;
65358;SDS011;52491;45.900;6.346;2024-03-22T12:24:23;2.75;;;0.98;;
65358;SDS011;52491;45.900;6.346;2024-03-22T12:26:49;1.58;;;0.90;;
65358;SDS011;52491;45.900;6.346;2024-03-22T12:29:15;2.40;;;1.20;;
65358;SDS011;52491;45.900;6.346;2024-03-22T12:31:42;1.58;;;1.08;;
65358;SDS011;52491;45.900;6.346;2024-03-22T12:34:08;9.32;;;1.40;;
65358;SDS011;52491;45.900;6.346;2024-03-22T12:36:34;3.28;;;1.05;;
65358;SDS011;52491;45.900;6.346;2024-03-22T12:38:59;1.73;;;1.10;;
65358;SDS011;52491;45.900;6.346;2024-03-22T12:41:25;3.33;;;0.90;;
65358;SDS011;52491;45.900;6.346;2024-03-22T12:43:54;1.73;;;0.90;;
65358;SDS011;52491;45.900;6.346;2024-03-22T12:46:20;3.22;;;1.20;;
65358;SDS011;52491;45.900;6.346;2024-03-22T12:48:46;2.40;;;1.05;;
65358;SDS011;52491;45.900;6.346;2024-03-22T12:51:11;4.13;;;1.38;;
65358;SDS011;52491;45.900;6.346;2024-03-22T12:53:37;1.63;;;0.90;;
65358;SDS011;52491;45.900;6.346;2024-03-22T12:56:03;2.20;;;0.93;;
65358;SDS011;52491;45.900;6.346;2024-03-22T12:58:29;5.55;;;0.80;;
65358;SDS011;52491;45.900;6.346;2024-03-22T13:00:56;2.80;;;0.77;;
65358;SDS011;52491;45.900;6.346;2024-03-22T13:03:22;7.63;;;1.20;;
65358;SDS011;52491;45.900;6.346;2024-03-22T13:05:48;3.92;;;1.00;;
65358;SDS011;52491;45.900;6.346;2024-03-22T13:08:14;1.40;;;0.70;;
65358;SDS011;52491;45.900;6.346;2024-03-22T13:10:40;1.63;;;0.98;;
65358;SDS011;52491;45.900;6.346;2024-03-22T13:13:08;1.10;;;0.75;;
65358;SDS011;52491;45.900;6.346;2024-03-22T13:15:35;1.15;;;0.90;;
65358;SDS011;52491;45.900;6.346;2024-03-22T13:18:02;1.83;;;1.00;;
65358;SDS011;52491;45.900;6.346;2024-03-22T13:20:28;2.58;;;1.13;;
65358;SDS011;52491;45.900;6.346;2024-03-22T13:22:54;1.58;;;1.00;;
65358;SDS011;52491;45.900;6.346;2024-03-22T13:25:20;1.63;;;1.23;;
65358;SDS011;52491;45.900;6.346;2024-03-22T13:27:46;1.42;;;0.82;;
65358;SDS011;52491;45.900;6.346;2024-03-22T13:30:11;1.48;;;0.82;;
65358;SDS011;52491;45.900;6.346;2024-03-22T13:32:38;4.35;;;1.10;;
65358;SDS011;52491;45.900;6.346;2024-03-22T13:35:04;3.42;;;1.00;;
65358;SDS011;52491;45.900;6.346;2024-03-22T13:37:30;4.28;;;1.02;;
65358;SDS011;52491;45.900;6.346;2024-03-22T13:39:56;2.15;;;0.98;;
65358;SDS011;52491;45.900;6.346;2024-03-22T13:42:22;1.98;;;0.98;;
65358;SDS011;52491;45.900;6.346;2024-03-22T13:44:48;2.22;;;0.85;;
65358;SDS011;52491;45.900;6.346;2024-03-22T13:47:14;2.05;;;0.88;;
65358;SDS011;52491;45.900;6.346;2024-03-22T13:49:39;1.73;;;1.13;;
65358;SDS011;52491;45.900;6.346;2024-03-22T13:52:07;1.23;;;0.80;;
65358;SDS011;52491;45.900;6.346;2024-03-22T13:54:33;2.42;;;0.70;;
65358;SDS011;52491;45.900;6.346;2024-03-22T13:56:58;3.33;;;1.05;;
65358;SDS011;52491;45.900;6.346;2024-03-22T13:59:26;1.05;;;0.80;;
65358;SDS011;52491;45.900;6.346;2024-03-22T14:01:51;2.47;;;1.00;;
65358;SDS011;52491;45.900;6.346;2024-03-22T14:04:17;0.95;;;0.85;;
65358;SDS011;52491;45.900;6.346;2024-03-22T14:06:45;1.23;;;0.80;;
65358;SDS011;52491;45.900;6.346;2024-03-22T14:09:11;2.70;;;1.00;;
65358;SDS011;52491;45.900;6.346;2024-03-22T14:11:38;0.95;;;0.73;;
65358;SDS011;52491;45.900;6.346;2024-03-22T14:14:04;1.48;;;0.68;;
65358;SDS011;52491;45.900;6.346;2024-03-22T14:16:32;1.10;;;0.60;;
65358;SDS011;52491;45.900;6.346;2024-03-22T14:18:58;1.50;;;1.00;;
65358;SDS011;52491;45.900;6.346;2024-03-22T14:21:23;1.27;;;0.60;;
65358;SDS011;52491;45.900;6.346;2024-03-22T14:23:49;3.20;;;0.70;;
65358;SDS011;52491;45.900;6.346;2024-03-22T14:26:15;1.02;;;0.80;;
65358;SDS011;52491;45.900;6.346;2024-03-22T14:28:42;1.00;;;0.50;;
65358;SDS011;52491;45.900;6.346;2024-03-22T14:31:09;1.65;;;0.85;;
65358;SDS011;52491;45.900;6.346;2024-03-22T14:33:35;0.93;;;0.50;;
65358;SDS011;52491;45.900;6.346;2024-03-22T14:36:01;0.95;;;0.85;;
65358;SDS011;52491;45.900;6.346;2024-03-22T14:38:28;2.58;;;1.27;;
65358;SDS011;52491;45.900;6.346;2024-03-22T14:40:54;0.88;;;0.57;;